Time;durP1;ratioP1;P1;durP2;ratioP2;P2;SDS_P1;SDS_P2;PMS_P1;PMS_P2;Temp;Humidity;BMP_temperature;BMP_pressure;BME280_temperature;BME280_humidity;BME280_pressure;Samples;Min_cycle;Max_cycle;Signal;HPM_P1;HPM_P2
2023/12/16 00:01:21;;;;;;;3.40;1.80;;;7.00;78.30;;;;;;5032763;28;20103;-72
2023/12/16 00:03:48;;;;;;;2.93;1.67;;;7.00;78.40;;;;;;5033201;28;20053;-72
2023/12/16 00:06:14;;;;;;;3.40;1.93;;;7.00;78.40;;;;;;5046236;28;20049;-71
2023/12/16 00:08:39;;;;;;;3.70;2.00;;;7.00;78.90;;;;;;5052617;28;20029;-72
2023/12/16 00:11:05;;;;;;;2.57;1.53;;;7.00;79.20;;;;;;5052260;28;20060;-71
2023/12/16 00:13:31;;;;;;;2.03;1.50;;;7.00;79.70;;;;;;5052618;28;20120;-71
2023/12/16 00:15:57;;;;;;;2.07;1.33;;;7.00;79.60;;;;;;5052641;28;20104;-72
2023/12/16 00:18:23;;;;;;;2.60;1.60;;;7.00;79.60;;;;;;5052297;28;20064;-72
2023/12/16 00:20:49;;;;;;;2.47;1.47;;;7.00;79.10;;;;;;5052399;28;20083;-71
2023/12/16 00:23:15;;;;;;;1.87;1.37;;;7.10;79.30;;;;;;5034500;28;20393;-71
2023/12/16 00:25:40;;;;;;;2.00;1.37;;;7.10;78.90;;;;;;5052535;28;20021;-71
2023/12/16 00:28:06;;;;;;;2.43;1.40;;;7.00;79.20;;;;;;5052295;28;20124;-72
2023/12/16 00:30:32;;;;;;;2.30;1.50;;;7.00;79.20;;;;;;5052435;28;20074;-71
2023/12/16 00:32:58;;;;;;;2.30;1.50;;;7.00;79.60;;;;;;5042916;28;20037;-72
2023/12/16 00:35:24;;;;;;;2.20;1.50;;;6.90;79.90;;;;;;5032291;28;20025;-71
2023/12/16 00:37:50;;;;;;;2.80;1.47;;;6.90;80.00;;;;;;5032054;28;20044;-72
2023/12/16 00:40:16;;;;;;;3.57;2.27;;;6.90;80.10;;;;;;5032283;28;20029;-72
2023/12/16 00:42:41;;;;;;;2.50;1.80;;;6.80;80.60;;;;;;5032192;28;20029;-71
2023/12/16 00:45:07;;;;;;;2.43;1.80;;;6.90;81.00;;;;;;5051309;28;20036;-72
2023/12/16 00:47:33;;;;;;;4.43;1.93;;;6.80;80.80;;;;;;5052023;28;20098;-72
2023/12/16 00:49:59;;;;;;;2.70;1.80;;;6.80;80.70;;;;;;5052467;28;20576;-72
2023/12/16 00:52:24;;;;;;;5.73;1.90;;;6.80;80.90;;;;;;5052323;28;20100;-72
2023/12/16 00:54:51;;;;;;;3.30;2.30;;;6.80;81.00;;;;;;5055686;28;20029;-72
2023/12/16 00:57:17;;;;;;;2.67;2.00;;;6.80;80.80;;;;;;5056044;28;20032;-72
2023/12/16 00:59:43;;;;;;;3.33;2.00;;;6.80;81.00;;;;;;5055983;28;20037;-71
2023/12/16 01:02:08;;;;;;;2.17;1.63;;;6.80;80.80;;;;;;5056123;28;20025;-72
2023/12/16 01:04:34;;;;;;;4.77;2.00;;;6.80;80.60;;;;;;5056251;28;20424;-72
2023/12/16 01:07:02;;;;;;;3.17;1.93;;;6.80;80.80;;;;;;5055643;28;20025;-72
2023/12/16 01:09:28;;;;;;;2.47;1.93;;;6.80;81.10;;;;;;5055762;28;20029;-71
2023/12/16 01:11:53;;;;;;;3.23;2.10;;;6.80;81.30;;;;;;5055849;28;20124;-72
2023/12/16 01:14:19;;;;;;;3.87;2.10;;;6.70;81.00;;;;;;5037803;28;20051;-72
2023/12/16 01:16:45;;;;;;;3.00;1.90;;;6.70;81.10;;;;;;5055932;28;20048;-72
2023/12/16 01:19:10;;;;;;;3.00;2.03;;;6.70;81.40;;;;;;5055494;28;20033;-72
2023/12/16 01:21:41;;;;;;;2.33;1.73;;;6.70;81.40;;;;;;5055545;28;20029;-72
2023/12/16 01:24:06;;;;;;;3.70;2.10;;;6.60;82.10;;;;;;5055780;28;20032;-73
2023/12/16 01:26:32;;;;;;;4.13;2.20;;;6.60;82.80;;;;;;5055583;28;20392;-71
2023/12/16 01:28:58;;;;;;;4.80;2.60;;;6.60;83.10;;;;;;5055520;28;20099;-72
2023/12/16 01:31:24;;;;;;;5.63;2.97;;;6.60;83.60;;;;;;5055637;28;20095;-72
2023/12/16 01:33:49;;;;;;;4.73;3.17;;;6.50;83.80;;;;;;5055807;28;20028;-70
2023/12/16 01:36:15;;;;;;;4.97;2.53;;;6.50;84.00;;;;;;5055507;28;20025;-71
2023/12/16 01:38:41;;;;;;;4.73;2.83;;;6.40;84.10;;;;;;5055093;28;20029;-71
2023/12/16 01:41:07;;;;;;;4.63;2.90;;;6.40;84.50;;;;;;5055181;28;20497;-72
2023/12/16 01:43:32;;;;;;;3.80;2.50;;;6.30;84.10;;;;;;5055501;28;20032;-72
2023/12/16 01:46:05;;;;;;;3.03;2.27;;;6.30;84.40;;;;;;5055339;28;20021;-72
2023/12/16 01:48:32;;;;;;;3.83;2.60;;;6.30;84.70;;;;;;5055118;28;20071;-72
2023/12/16 01:50:58;;;;;;;4.37;2.80;;;6.30;84.70;;;;;;5054855;28;20393;-71
2023/12/16 01:53:26;;;;;;;4.23;2.83;;;6.20;84.80;;;;;;5055357;28;20037;-72
2023/12/16 01:55:52;;;;;;;3.43;2.43;;;6.20;84.90;;;;;;5055202;28;20108;-72
2023/12/16 01:58:18;;;;;;;4.20;2.60;;;6.20;85.30;;;;;;5053402;28;20045;-72
2023/12/16 02:00:47;;;;;;;3.13;2.13;;;6.20;85.30;;;;;;5052290;28;20029;-71
2023/12/16 02:03:17;;;;;;;5.33;2.37;;;6.20;85.40;;;;;;5052355;28;20473;-72
2023/12/16 02:05:43;;;;;;;5.90;2.73;;;6.20;85.50;;;;;;5053955;28;20531;-72
2023/12/16 02:08:09;;;;;;;4.90;3.03;;;6.20;85.80;;;;;;5054906;28;20025;-72
2023/12/16 02:10:35;;;;;;;4.40;3.10;;;6.20;85.80;;;;;;5054679;28;20497;-72
2023/12/16 02:13:04;;;;;;;5.67;2.83;;;6.10;85.60;;;;;;5036545;28;20063;-71
2023/12/16 02:15:30;;;;;;;4.37;2.83;;;6.20;86.00;;;;;;5054583;28;20587;-72
2023/12/16 02:17:56;;;;;;;4.57;2.77;;;6.20;85.50;;;;;;5054557;28;20435;-72
2023/12/16 02:20:22;;;;;;;4.33;2.03;;;6.20;86.00;;;;;;5054409;28;20025;-73
2023/12/16 02:22:48;;;;;;;4.23;2.57;;;6.20;86.40;;;;;;5054717;28;20066;-72
2023/12/16 02:25:15;;;;;;;4.00;2.73;;;6.20;86.80;;;;;;5054632;28;20116;-73
2023/12/16 02:27:41;;;;;;;4.87;2.93;;;6.20;86.70;;;;;;5054184;28;20032;-71
2023/12/16 02:30:10;;;;;;;5.00;3.07;;;6.20;86.90;;;;;;5034493;28;20390;-72
2023/12/16 02:32:36;;;;;;;3.83;3.00;;;6.10;87.00;;;;;;5034378;28;20533;-71
2023/12/16 02:35:02;;;;;;;6.77;2.90;;;6.10;87.20;;;;;;5033955;28;20061;-72
2023/12/16 02:37:29;;;;;;;4.33;2.80;;;6.10;87.30;;;;;;5034264;28;20064;-72
2023/12/16 02:39:55;;;;;;;4.73;2.97;;;6.10;87.60;;;;;;5034349;28;20498;-73
2023/12/16 02:42:21;;;;;;;4.17;3.10;;;6.10;88.20;;;;;;5034216;28;20046;-72
2023/12/16 02:44:47;;;;;;;4.90;3.20;;;6.10;88.10;;;;;;5034075;28;20032;-72
2023/12/16 02:47:13;;;;;;;5.13;3.03;;;6.00;88.10;;;;;;5034277;28;20073;-72
2023/12/16 02:49:38;;;;;;;4.60;2.80;;;6.00;88.20;;;;;;5034257;28;20025;-72
2023/12/16 02:52:05;;;;;;;4.70;2.87;;;6.00;88.20;;;;;;5034072;28;20021;-72
2023/12/16 02:54:30;;;;;;;5.17;2.87;;;6.00;88.20;;;;;;5034194;28;20083;-72
2023/12/16 02:56:56;;;;;;;4.73;2.83;;;5.90;87.80;;;;;;5034289;28;20037;-72
2023/12/16 02:59:22;;;;;;;3.17;2.20;;;5.90;88.20;;;;;;5034229;28;20124;-72
2023/12/16 03:01:48;;;;;;;4.10;2.40;;;5.90;88.30;;;;;;5033950;28;20362;-72
2023/12/16 03:04:14;;;;;;;3.27;2.33;;;5.90;88.20;;;;;;5033936;28;20076;-72
2023/12/16 03:06:44;;;;;;;3.37;2.03;;;5.90;88.10;;;;;;5032841;28;20033;-72
2023/12/16 03:09:10;;;;;;;3.70;2.13;;;5.90;87.80;;;;;;5033790;28;20057;-72
2023/12/16 03:11:36;;;;;;;3.30;2.10;;;5.90;88.00;;;;;;5033602;28;20132;-72
2023/12/16 03:14:01;;;;;;;3.60;2.30;;;5.90;87.80;;;;;;5033492;28;20109;-71
2023/12/16 03:16:27;;;;;;;4.07;2.10;;;5.90;87.60;;;;;;5032930;28;20028;-71
2023/12/16 03:18:53;;;;;;;3.30;2.30;;;5.90;87.90;;;;;;5033925;28;20171;-72
2023/12/16 03:21:18;;;;;;;3.03;2.20;;;5.90;88.00;;;;;;5033288;28;20022;-72
2023/12/16 03:23:44;;;;;;;3.13;1.90;;;5.90;88.20;;;;;;5033339;28;20029;-72
2023/12/16 03:26:10;;;;;;;3.23;2.20;;;5.90;87.80;;;;;;5033424;28;20025;-72
2023/12/16 03:28:36;;;;;;;4.70;2.03;;;5.90;88.10;;;;;;5033619;28;20025;-72
2023/12/16 03:31:01;;;;;;;5.90;2.40;;;5.90;88.20;;;;;;5033400;28;20053;-73
2023/12/16 03:33:27;;;;;;;4.67;2.53;;;5.90;88.20;;;;;;5033602;28;20071;-72
2023/12/16 03:35:53;;;;;;;4.40;2.90;;;5.90;88.20;;;;;;5033640;28;20104;-72
2023/12/16 03:38:19;;;;;;;5.03;3.37;;;5.90;88.30;;;;;;5033333;28;20040;-73
2023/12/16 03:40:44;;;;;;;3.63;2.57;;;5.80;88.60;;;;;;5033611;28;20044;-72
2023/12/16 03:43:12;;;;;;;4.33;2.70;;;5.80;89.10;;;;;;5032926;28;20366;-72
2023/12/16 03:45:37;;;;;;;5.27;2.80;;;5.80;89.50;;;;;;5015678;28;20041;-72
2023/12/16 03:48:03;;;;;;;3.87;2.30;;;5.80;89.80;;;;;;5033410;28;20185;-72
2023/12/16 03:50:29;;;;;;;6.40;2.30;;;5.80;89.70;;;;;;5033395;28;20477;-71
2023/12/16 03:52:55;;;;;;;4.73;2.60;;;5.80;89.80;;;;;;5033200;28;20034;-72
2023/12/16 03:55:21;;;;;;;6.40;2.27;;;5.70;89.40;;;;;;5032951;28;20482;-73
2023/12/16 03:57:46;;;;;;;2.73;2.00;;;5.80;89.80;;;;;;5032952;28;20033;-72
2023/12/16 04:00:12;;;;;;;4.10;2.10;;;5.70;90.00;;;;;;5032865;28;20091;-71
2023/12/16 04:02:38;;;;;;;4.73;3.30;;;5.70;90.20;;;;;;5032897;28;20037;-71
2023/12/16 04:05:04;;;;;;;4.30;2.90;;;5.70;90.40;;;;;;5032522;28;20092;-71
2023/12/16 04:07:30;;;;;;;6.63;3.17;;;5.70;90.40;;;;;;5032672;28;20026;-72
2023/12/16 04:09:56;;;;;;;4.20;2.40;;;5.70;90.50;;;;;;5032408;28;20094;-72
2023/12/16 04:12:21;;;;;;;5.33;2.83;;;5.70;90.60;;;;;;5032405;28;20026;-72
2023/12/16 04:14:47;;;;;;;4.70;2.47;;;5.70;90.60;;;;;;5032530;28;20021;-72
2023/12/16 04:17:13;;;;;;;4.37;2.73;;;5.60;90.60;;;;;;5032196;28;20025;-72
2023/12/16 04:19:48;;;;;;;5.90;2.50;;;5.60;90.70;;;;;;5032459;28;20034;-71
2023/12/16 04:22:14;;;;;;;5.40;3.27;;;5.60;90.80;;;;;;5032302;28;20381;-71
2023/12/16 04:24:39;;;;;;;5.00;3.03;;;5.60;90.90;;;;;;5032623;28;20100;-72
2023/12/16 04:27:05;;;;;;;6.47;3.27;;;5.60;90.90;;;;;;5030927;28;20030;-72
2023/12/16 04:29:31;;;;;;;6.10;3.70;;;5.60;90.90;;;;;;5031665;28;20032;-72
2023/12/16 04:31:56;;;;;;;5.53;3.60;;;5.50;90.90;;;;;;5032440;28;20179;-71
2023/12/16 04:34:22;;;;;;;6.73;3.50;;;5.50;90.80;;;;;;5032439;28;20034;-71
2023/12/16 04:36:48;;;;;;;6.80;3.70;;;5.50;90.80;;;;;;5032482;28;20037;-70
2023/12/16 04:39:14;;;;;;;6.00;3.17;;;5.50;91.00;;;;;;5032233;28;20042;-72
2023/12/16 04:41:39;;;;;;;5.80;3.30;;;5.50;91.00;;;;;;5032392;28;20155;-72
2023/12/16 04:44:05;;;;;;;4.23;2.87;;;5.50;91.30;;;;;;5032532;28;20033;-70
2023/12/16 04:46:31;;;;;;;4.90;2.80;;;5.40;91.10;;;;;;5032365;28;20076;-72
2023/12/16 04:48:57;;;;;;;4.23;2.83;;;5.40;90.80;;;;;;5032139;28;20083;-72
2023/12/16 04:51:22;;;;;;;4.90;2.70;;;5.40;90.70;;;;;;5024038;28;20033;-71
2023/12/16 04:53:48;;;;;;;4.73;3.10;;;5.40;90.80;;;;;;5042135;28;20112;-71
2023/12/16 04:56:14;;;;;;;9.63;3.10;;;5.40;90.90;;;;;;5052230;28;20025;-71
2023/12/16 04:58:40;;;;;;;4.27;2.63;;;5.40;91.00;;;;;;5051835;28;20041;-72
2023/12/16 05:01:05;;;;;;;5.37;2.60;;;5.30;91.00;;;;;;5053667;28;20083;-72
2023/12/16 05:03:32;;;;;;;6.63;3.20;;;5.30;91.20;;;;;;5053483;28;20029;-72
2023/12/16 05:05:58;;;;;;;4.00;2.70;;;5.30;91.40;;;;;;5053759;28;20029;-71
2023/12/16 05:08:24;;;;;;;4.47;2.67;;;5.20;91.60;;;;;;5053518;28;20025;-72
2023/12/16 05:10:49;;;;;;;5.20;2.70;;;5.20;91.70;;;;;;5053136;28;20048;-70
2023/12/16 05:13:15;;;;;;;5.10;2.70;;;5.10;91.90;;;;;;5053228;28;20024;-72
2023/12/16 05:15:41;;;;;;;4.37;2.67;;;5.10;92.10;;;;;;5053450;28;20020;-72
2023/12/16 05:18:08;;;;;;;4.23;2.60;;;5.00;92.30;;;;;;5053254;28;20475;-72
2023/12/16 05:20:34;;;;;;;3.63;2.73;;;5.00;92.40;;;;;;5053327;28;20025;-72
2023/12/16 05:23:01;;;;;;;4.60;2.63;;;5.00;92.40;;;;;;5055902;28;20099;-68
2023/12/16 05:25:30;;;;;;;4.13;2.67;;;5.00;92.50;;;;;;5055234;28;20584;-70
2023/12/16 05:27:56;;;;;;;3.50;2.30;;;5.00;92.40;;;;;;5054478;28;20029;-69
2023/12/16 05:30:22;;;;;;;3.70;2.20;;;5.00;92.30;;;;;;5053341;28;20029;-69
2023/12/16 05:32:49;;;;;;;5.40;3.33;;;5.00;92.30;;;;;;5053621;28;20541;-69
2023/12/16 05:35:15;;;;;;;5.90;3.60;;;5.00;92.50;;;;;;5053557;28;20021;-69
2023/12/16 05:37:41;;;;;;;4.27;2.97;;;5.00;92.60;;;;;;5054802;28;20074;-70
2023/12/16 05:40:07;;;;;;;4.37;2.57;;;5.00;92.70;;;;;;5056690;28;20060;-69
2023/12/16 05:42:32;;;;;;;4.53;3.00;;;5.00;92.90;;;;;;5058201;28;20377;-69
2023/12/16 05:44:58;;;;;;;4.93;2.97;;;5.00;93.10;;;;;;5066817;28;20021;-68
2023/12/16 05:47:25;;;;;;;4.13;2.90;;;5.00;93.00;;;;;;5075598;28;20437;-70
2023/12/16 05:49:50;;;;;;;4.13;2.87;;;5.00;93.10;;;;;;5075248;28;20021;-70
2023/12/16 05:52:16;;;;;;;3.90;3.13;;;5.00;93.10;;;;;;5075123;28;20043;-69
2023/12/16 05:54:42;;;;;;;5.50;3.30;;;5.00;93.20;;;;;;5028551;28;20457;-69
2023/12/16 05:57:08;;;;;;;4.27;3.03;;;5.00;93.10;;;;;;5035123;28;20022;-69
2023/12/16 05:59:34;;;;;;;4.77;2.93;;;4.90;93.00;;;;;;5035213;28;20052;-69
2023/12/16 06:02:00;;;;;;;5.67;2.97;;;4.90;93.30;;;;;;5039589;28;20029;-69
2023/12/16 06:04:26;;;;;;;6.30;3.13;;;4.90;93.40;;;;;;5048440;28;20036;-69
2023/12/16 06:06:52;;;;;;;5.50;3.00;;;4.90;93.40;;;;;;5047435;28;20096;-69
2023/12/16 06:09:18;;;;;;;5.30;3.23;;;4.90;93.40;;;;;;5045873;28;20021;-69
2023/12/16 06:11:44;;;;;;;4.83;3.03;;;4.80;93.50;;;;;;5034812;28;20104;-69
2023/12/16 06:14:09;;;;;;;4.30;3.20;;;4.80;93.70;;;;;;5035181;28;20029;-69
2023/12/16 06:16:35;;;;;;;7.17;2.87;;;4.80;93.80;;;;;;5033699;28;20029;-68
2023/12/16 06:19:04;;;;;;;4.27;3.10;;;4.80;94.10;;;;;;5034713;28;20032;-69
2023/12/16 06:21:30;;;;;;;5.60;3.20;;;4.80;93.80;;;;;;5034728;28;20096;-70
2023/12/16 06:23:58;;;;;;;4.97;3.37;;;4.80;93.70;;;;;;5034476;28;20052;-69
2023/12/16 06:26:24;;;;;;;5.70;3.40;;;4.80;93.70;;;;;;5034764;28;20028;-70
2023/12/16 06:28:50;;;;;;;7.13;3.67;;;4.70;93.90;;;;;;5034585;28;20609;-69
2023/12/16 06:31:19;;;;;;;5.00;3.70;;;4.70;94.00;;;;;;5034480;28;20100;-69
2023/12/16 06:33:45;;;;;;;6.63;3.50;;;4.70;94.10;;;;;;5034523;28;20108;-69
2023/12/16 06:36:11;;;;;;;5.93;3.77;;;4.70;94.20;;;;;;5034437;28;20028;-68
2023/12/16 06:38:37;;;;;;;7.03;4.17;;;4.70;94.50;;;;;;5034598;28;20390;-70
2023/12/16 06:41:03;;;;;;;5.47;3.47;;;4.70;94.80;;;;;;5034469;28;20022;-71
2023/12/16 06:43:29;;;;;;;6.53;3.93;;;4.70;95.00;;;;;;5034289;28;20108;-69
2023/12/16 06:45:55;;;;;;;6.43;4.37;;;4.70;95.00;;;;;;5033803;28;20021;-69
2023/12/16 06:48:22;;;;;;;7.50;3.53;;;4.70;95.10;;;;;;5034422;28;20491;-69
2023/12/16 06:50:49;;;;;;;6.87;4.07;;;4.70;95.40;;;;;;5033296;28;20469;-69
2023/12/16 06:53:15;;;;;;;8.43;4.57;;;4.70;95.60;;;;;;5034216;28;20045;-69
2023/12/16 06:55:41;;;;;;;8.80;3.70;;;4.70;95.80;;;;;;5033750;28;20028;-69
2023/12/16 06:58:07;;;;;;;5.77;4.03;;;4.70;95.80;;;;;;5033847;28;20022;-69
2023/12/16 07:00:33;;;;;;;8.67;4.63;;;4.70;95.90;;;;;;5034005;28;20033;-69
2023/12/16 07:02:59;;;;;;;6.83;4.97;;;4.70;96.00;;;;;;5033930;28;20021;-70
2023/12/16 07:05:25;;;;;;;11.97;4.40;;;4.70;96.00;;;;;;5033728;28;20025;-69
2023/12/16 07:07:51;;;;;;;7.90;5.17;;;4.70;96.00;;;;;;5033649;28;20385;-70
2023/12/16 07:10:17;;;;;;;12.00;5.10;;;4.70;95.80;;;;;;5033880;28;20526;-69
2023/12/16 07:12:42;;;;;;;8.60;5.03;;;4.70;95.70;;;;;;5033663;28;20021;-71
2023/12/16 07:15:10;;;;;;;11.40;5.10;;;4.60;95.70;;;;;;5033457;28;20489;-70
2023/12/16 07:17:36;;;;;;;8.67;5.10;;;4.60;95.80;;;;;;5033201;28;20072;-69
2023/12/16 07:20:02;;;;;;;8.97;4.63;;;4.60;95.90;;;;;;5033273;28;20029;-70
2023/12/16 07:22:29;;;;;;;8.30;4.77;;;4.60;96.10;;;;;;5033200;28;20428;-69
2023/12/16 07:24:56;;;;;;;11.07;4.97;;;4.70;96.30;;;;;;5033445;28;20090;-69
2023/12/16 07:27:22;;;;;;;8.90;5.27;;;4.70;96.40;;;;;;5033543;28;20052;-69
2023/12/16 07:29:48;;;;;;;9.13;5.00;;;4.70;96.40;;;;;;5030533;28;20033;-70
2023/12/16 07:32:13;;;;;;;7.93;4.67;;;4.80;96.40;;;;;;5030820;28;20025;-71
2023/12/16 07:34:40;;;;;;;9.93;4.97;;;4.80;96.20;;;;;;5031025;28;20029;-70
2023/12/16 07:37:06;;;;;;;12.47;4.97;;;4.80;96.10;;;;;;5032832;28;20036;-69
2023/12/16 07:39:31;;;;;;;8.17;5.30;;;4.80;96.20;;;;;;5033374;28;20034;-69
2023/12/16 07:41:57;;;;;;;7.13;4.17;;;4.90;96.40;;;;;;5032935;28;20022;-69
2023/12/16 07:44:24;;;;;;;7.00;4.33;;;5.00;96.50;;;;;;5060244;28;20100;-70
2023/12/16 07:46:49;;;;;;;8.87;5.10;;;5.00;96.50;;;;;;5033339;28;20020;-71
2023/12/16 07:49:17;;;;;;;7.53;5.00;;;5.10;96.50;;;;;;5033080;28;20018;-69
2023/12/16 07:51:43;;;;;;;8.57;4.30;;;5.10;96.60;;;;;;5042652;28;20025;-70
2023/12/16 07:54:11;;;;;;;11.60;4.80;;;5.20;96.60;;;;;;5044205;28;20024;-71
2023/12/16 07:56:36;;;;;;;9.50;6.37;;;5.30;96.40;;;;;;5033238;28;20470;-72
2023/12/16 07:59:02;;;;;;;16.50;9.33;;;5.30;96.20;;;;;;5032575;28;20071;-73
2023/12/16 08:01:28;;;;;;;20.80;10.10;;;5.40;96.20;;;;;;5032635;28;20034;-70
2023/12/16 08:03:54;;;;;;;11.90;6.57;;;5.40;96.20;;;;;;5032756;28;20057;-72
2023/12/16 08:06:20;;;;;;;11.73;6.27;;;5.50;96.30;;;;;;5032729;28;20461;-71
2023/12/16 08:08:46;;;;;;;12.23;5.67;;;5.50;96.30;;;;;;5031994;28;20021;-71
2023/12/16 08:11:12;;;;;;;6.87;4.60;;;5.60;96.30;;;;;;5033015;28;20076;-71
2023/12/16 08:13:38;;;;;;;9.63;4.83;;;5.70;96.20;;;;;;5030498;28;20067;-71
2023/12/16 08:16:08;;;;;;;12.20;7.63;;;5.80;96.20;;;;;;5032651;28;20041;-72
2023/12/16 08:18:34;;;;;;;17.23;9.13;;;5.80;96.00;;;;;;5015023;28;20083;-72
2023/12/16 08:21:00;;;;;;;14.67;8.70;;;5.90;95.90;;;;;;5032836;28;20021;-71
2023/12/16 08:23:26;;;;;;;14.43;8.67;;;5.90;96.10;;;;;;5014986;28;20055;-72
2023/12/16 08:25:51;;;;;;;12.20;7.40;;;5.90;96.10;;;;;;5031393;28;20030;-72
2023/12/16 08:28:17;;;;;;;15.30;6.83;;;6.00;96.10;;;;;;5032595;28;20028;-70
2023/12/16 08:30:44;;;;;;;9.10;5.23;;;6.10;96.10;;;;;;5032286;28;20021;-71
2023/12/16 08:33:09;;;;;;;7.73;4.83;;;6.10;96.10;;;;;;5032878;28;20439;-72
2023/12/16 08:35:36;;;;;;;5.77;3.97;;;6.20;96.00;;;;;;5032206;28;20022;-72
2023/12/16 08:38:03;;;;;;;6.10;3.77;;;6.20;95.90;;;;;;5032453;28;20041;-71
2023/12/16 08:40:29;;;;;;;7.43;3.70;;;6.20;95.70;;;;;;5032756;28;20032;-72
2023/12/16 08:42:55;;;;;;;9.17;4.33;;;6.30;95.70;;;;;;5037220;28;20112;-72
2023/12/16 08:45:21;;;;;;;7.70;4.60;;;6.30;95.60;;;;;;5052041;28;20065;-72
2023/12/16 08:47:46;;;;;;;12.67;6.07;;;6.40;95.80;;;;;;5051197;28;20041;-72
2023/12/16 08:50:12;;;;;;;10.20;5.87;;;6.40;95.40;;;;;;5049372;28;20021;-70
2023/12/16 08:52:38;;;;;;;11.67;6.00;;;6.40;95.40;;;;;;5049579;28;20036;-72
2023/12/16 08:55:05;;;;;;;14.10;5.40;;;6.40;95.50;;;;;;5051904;28;20064;-73
2023/12/16 08:57:31;;;;;;;13.90;6.17;;;6.40;95.50;;;;;;5052060;28;20082;-73
2023/12/16 08:59:57;;;;;;;11.80;5.70;;;6.50;95.50;;;;;;5052071;28;20033;-73
2023/12/16 09:02:23;;;;;;;13.97;5.17;;;6.50;95.30;;;;;;5034186;28;20032;-73
2023/12/16 09:04:49;;;;;;;7.30;4.80;;;6.60;95.20;;;;;;5052641;28;20033;-72
2023/12/16 09:07:15;;;;;;;7.77;4.60;;;6.60;95.00;;;;;;5052103;28;20021;-73
2023/12/16 09:09:41;;;;;;;6.67;3.77;;;6.60;94.70;;;;;;5051736;28;20107;-73
2023/12/16 09:12:07;;;;;;;4.20;2.87;;;6.70;94.50;;;;;;5051963;28;20025;-73
2023/12/16 09:14:33;;;;;;;3.40;2.30;;;6.70;94.20;;;;;;5050315;28;20025;-73
2023/12/16 09:17:00;;;;;;;3.30;2.37;;;6.80;93.50;;;;;;5053523;28;20021;-73
2023/12/16 09:19:26;;;;;;;4.60;2.77;;;6.90;93.40;;;;;;5054094;28;20029;-73
2023/12/16 09:21:52;;;;;;;4.10;2.40;;;7.00;93.30;;;;;;5055309;28;20025;-73
2023/12/16 09:24:18;;;;;;;2.93;2.27;;;7.00;93.20;;;;;;5055719;28;20025;-73
2023/12/16 09:26:44;;;;;;;3.30;2.17;;;7.00;92.90;;;;;;5055734;28;20088;-73
2023/12/16 09:29:11;;;;;;;3.80;2.40;;;7.10;92.80;;;;;;5055554;28;20029;-73
2023/12/16 09:31:37;;;;;;;4.67;2.23;;;7.10;92.70;;;;;;5055923;28;20029;-73
2023/12/16 09:34:03;;;;;;;2.67;1.90;;;7.20;92.60;;;;;;5055706;28;20017;-73
2023/12/16 09:36:30;;;;;;;2.67;2.00;;;7.20;92.40;;;;;;5055141;28;20025;-73
2023/12/16 09:39:00;;;;;;;3.73;2.50;;;7.20;92.20;;;;;;5054363;28;20124;-73
2023/12/16 09:41:28;;;;;;;2.93;2.13;;;7.30;92.00;;;;;;5054325;28;20021;-72
2023/12/16 09:43:56;;;;;;;4.00;2.20;;;7.40;91.70;;;;;;5053948;28;20079;-73
2023/12/16 09:46:30;;;;;;;4.50;2.47;;;7.40;91.50;;;;;;5054392;28;20029;-73
2023/12/16 09:48:56;;;;;;;2.90;2.20;;;7.40;91.40;;;;;;5054217;28;20533;-73
2023/12/16 09:51:23;;;;;;;4.97;2.27;;;7.50;91.10;;;;;;5053945;28;20066;-73
2023/12/16 09:53:50;;;;;;;4.23;2.30;;;7.50;91.00;;;;;;5055040;28;20032;-72
2023/12/16 09:56:19;;;;;;;4.13;2.47;;;7.60;91.10;;;;;;5055273;28;20086;-73
2023/12/16 09:58:46;;;;;;;5.07;2.83;;;7.60;91.20;;;;;;5055084;28;20083;-72
2023/12/16 10:01:13;;;;;;;4.33;3.10;;;7.60;91.20;;;;;;5055139;28;20028;-72
2023/12/16 10:03:40;;;;;;;5.07;2.87;;;7.70;91.00;;;;;;5055046;28;20583;-73
2023/12/16 10:06:07;;;;;;;4.10;2.73;;;7.70;90.90;;;;;;5054695;28;20159;-73
2023/12/16 10:08:38;;;;;;;3.90;2.40;;;7.80;91.10;;;;;;5044588;23;20079;-71
2023/12/16 10:11:05;;;;;;;2.67;2.17;;;7.80;91.10;;;;;;5055200;28;20118;-71
2023/12/16 10:13:57;;;;;;;3.17;2.37;;;7.90;91.10;;;;;;5053012;28;20033;-71
2023/12/16 10:16:24;;;;;;;3.90;2.50;;;8.00;90.90;;;;;;5055197;28;20096;-71
2023/12/16 10:18:57;;;;;;;8.40;2.70;;;8.00;90.80;;;;;;5039614;28;20021;-71
2023/12/16 10:21:32;;;;;;;3.43;1.90;;;8.10;90.60;;;;;;5034620;28;20484;-71
2023/12/16 10:24:02;;;;;;;5.37;2.57;;;8.10;90.10;;;;;;5017175;28;20393;-71
2023/12/16 10:26:33;;;;;;;4.30;2.73;;;8.20;88.90;;;;;;5035067;28;20131;-71
2023/12/16 10:29:04;;;;;;;3.40;2.50;;;8.30;88.30;;;;;;5034836;28;20028;-71
2023/12/16 10:31:29;;;;;;;5.97;2.77;;;8.30;88.20;;;;;;5034988;28;20021;-71
2023/12/16 10:33:55;;;;;;;4.03;2.40;;;8.40;88.20;;;;;;5034665;28;20504;-71
2023/12/16 10:36:21;;;;;;;3.83;2.47;;;8.40;88.20;;;;;;5034721;28;20079;-71
2023/12/16 10:38:47;;;;;;;3.30;2.23;;;8.50;87.90;;;;;;5034707;28;20045;-71
2023/12/16 10:41:13;;;;;;;4.30;2.20;;;8.50;87.60;;;;;;5047215;28;20052;-71
2023/12/16 10:43:39;;;;;;;3.23;2.17;;;8.60;87.80;;;;;;5054514;28;20063;-71
2023/12/16 10:46:06;;;;;;;7.97;2.70;;;8.60;87.30;;;;;;5054251;28;20133;-70
2023/12/16 10:48:36;;;;;;;4.93;2.73;;;8.60;86.50;;;;;;5054534;28;20067;-71
2023/12/16 10:51:03;;;;;;;5.20;2.60;;;8.70;86.10;;;;;;5054669;28;20353;-71
2023/12/16 10:53:37;;;;;;;6.83;2.30;;;8.80;85.30;;;;;;5054519;28;20079;-71
2023/12/16 10:56:24;;;;;;;3.50;2.23;;;8.80;85.30;;;;;;5054598;28;20021;-71
2023/12/16 10:59:16;;;;;;;3.23;2.20;;;8.90;85.50;;;;;;5035979;28;20044;-71
2023/12/16 11:01:46;;;;;;;3.30;2.27;;;9.00;84.80;;;;;;5054416;28;20376;-73
2023/12/16 11:04:17;;;;;;;3.57;2.47;;;9.00;84.90;;;;;;5054417;28;20075;-73
2023/12/16 11:07:09;;;;;;;5.23;2.50;;;9.00;85.70;;;;;;5054091;28;20021;-72
2023/12/16 11:09:36;;;;;;;6.55;3.28;;;9.10;85.60;;;;;;5053945;28;20108;-72
2023/12/16 11:12:03;;;;;;;4.13;2.27;;;9.10;85.40;;;;;;5053930;28;20032;-71
2023/12/16 11:14:31;;;;;;;2.40;1.80;;;9.20;84.40;;;;;;5053860;28;20035;-73
2023/12/16 11:17:21;;;;;;;2.67;1.70;;;9.20;83.80;;;;;;5053880;28;20024;-73
2023/12/16 11:19:56;;;;;;;3.53;1.90;;;9.30;82.80;;;;;;5053963;28;20033;-73
2023/12/16 11:22:23;;;;;;;5.33;2.10;;;9.30;82.40;;;;;;5053599;28;20021;-72
2023/12/16 11:24:52;;;;;;;4.17;2.00;;;9.30;82.50;;;;;;5053976;28;20021;-73
2023/12/16 11:27:20;;;;;;;3.00;1.57;;;9.40;82.80;;;;;;5053819;28;20025;-73
2023/12/16 11:29:47;;;;;;;3.40;2.40;;;9.40;81.90;;;;;;5053520;28;20028;-73
2023/12/16 11:32:12;;;;;;;4.40;2.10;;;9.50;82.00;;;;;;5053228;28;20017;-73
2023/12/16 11:34:49;;;;;;;3.77;2.27;;;9.50;81.80;;;;;;5053504;28;20029;-73
2023/12/16 11:37:34;;;;;;;4.30;1.90;;;9.60;81.70;;;;;;5052779;28;20017;-73
2023/12/16 11:40:03;;;;;;;3.13;1.97;;;9.60;81.30;;;;;;5052587;28;20040;-72
2023/12/16 11:42:53;;;;;;;3.63;1.93;;;9.60;81.60;;;;;;5049502;28;20021;-72
2023/12/16 11:45:45;;;;;;;3.23;1.87;;;9.70;82.10;;;;;;5033606;28;20034;-73
2023/12/16 11:48:15;;;;;;;4.30;2.20;;;9.70;81.80;;;;;;5033264;28;20025;-73
2023/12/16 11:50:44;;;;;;;2.77;1.83;;;9.70;80.90;;;;;;5033341;28;20524;-72
2023/12/16 11:53:12;;;;;;;4.57;2.03;;;9.80;80.60;;;;;;5033527;28;20124;-73
2023/12/16 11:55:39;;;;;;;4.10;2.10;;;9.80;80.50;;;;;;5032983;28;20125;-73
2023/12/16 11:58:05;;;;;;;3.70;2.20;;;9.80;80.10;;;;;;5032957;28;20547;-73
2023/12/16 12:00:31;;;;;;;3.30;2.00;;;9.80;79.80;;;;;;5033278;28;20476;-72
2023/12/16 12:03:00;;;;;;;4.60;2.00;;;9.90;79.90;;;;;;5033275;28;20495;-73
2023/12/16 12:05:27;;;;;;;3.23;2.07;;;9.80;79.90;;;;;;5014984;28;20463;-73
2023/12/16 12:07:53;;;;;;;3.10;1.90;;;9.90;79.40;;;;;;5031772;28;20034;-73
2023/12/16 12:10:18;;;;;;;6.43;2.57;;;9.90;79.20;;;;;;5032750;28;20094;-73
2023/12/16 12:12:44;;;;;;;4.20;1.90;;;9.90;78.40;;;;;;5032719;28;20061;-73
2023/12/16 12:15:10;;;;;;;5.20;1.83;;;9.90;77.70;;;;;;5033148;28;20025;-73
2023/12/16 12:17:36;;;;;;;5.00;1.80;;;9.90;77.90;;;;;;5033144;28;20385;-72
2023/12/16 12:20:06;;;;;;;4.87;1.87;;;9.90;76.90;;;;;;5032552;28;20113;-73
2023/12/16 12:22:33;;;;;;;6.20;1.53;;;10.00;75.20;;;;;;5032953;28;20100;-73
2023/12/16 12:24:59;;;;;;;2.57;1.60;;;9.90;74.30;;;;;;5032851;28;20070;-73
2023/12/16 12:27:27;;;;;;;2.90;1.70;;;9.90;73.40;;;;;;5032768;28;20021;-73
2023/12/16 12:29:54;;;;;;;4.70;2.03;;;9.90;72.80;;;;;;5032515;28;20389;-72
2023/12/16 12:32:20;;;;;;;2.90;1.50;;;9.90;73.50;;;;;;5032654;28;20021;-71
2023/12/16 12:34:45;;;;;;;2.80;1.63;;;9.90;73.00;;;;;;5032932;28;20029;-73
2023/12/16 12:37:11;;;;;;;5.93;1.77;;;9.90;72.40;;;;;;5032618;28;20032;-72
2023/12/16 12:39:37;;;;;;;3.10;1.70;;;9.90;72.60;;;;;;5032704;28;20034;-72
2023/12/16 12:42:04;;;;;;;3.83;1.60;;;9.90;73.70;;;;;;5032913;28;20465;-73
2023/12/16 12:44:30;;;;;;;5.63;1.50;;;9.90;73.30;;;;;;5032467;28;20021;-73
2023/12/16 12:46:56;;;;;;;3.10;1.70;;;9.90;72.80;;;;;;5032671;28;20022;-73
2023/12/16 12:49:32;;;;;;;2.33;1.37;;;9.90;73.10;;;;;;5033691;28;20029;-73
2023/12/16 12:51:58;;;;;;;3.57;1.40;;;10.00;73.90;;;;;;5036873;28;20026;-73
2023/12/16 12:54:25;;;;;;;2.80;1.60;;;10.00;74.20;;;;;;5036840;28;20437;-73